sensor_id;sensor_type;location;lat;lon;timestamp;P1;durP1;ratioP1;P2;durP2;ratioP2
45007;SDS011;30743;52.008;5.644;2022-09-24T00:01:52;18.70;;;15.60;;
45007;SDS011;30743;52.008;5.644;2022-09-24T00:04:17;18.88;;;15.43;;
45007;SDS011;30743;52.008;5.644;2022-09-24T00:06:44;20.13;;;15.40;;
45007;SDS011;30743;52.008;5.644;2022-09-24T00:09:11;19.77;;;15.73;;
45007;SDS011;30743;52.008;5.644;2022-09-24T00:11:39;18.05;;;15.32;;
45007;SDS011;30743;52.008;5.644;2022-09-24T00:14:05;19.70;;;16.27;;
45007;SDS011;30743;52.008;5.644;2022-09-24T00:16:31;20.83;;;16.83;;
45007;SDS011;30743;52.008;5.644;2022-09-24T00:18:58;19.75;;;16.60;;
45007;SDS011;30743;52.008;5.644;2022-09-24T00:21:25;19.30;;;16.20;;
45007;SDS011;30743;52.008;5.644;2022-09-24T00:23:53;21.13;;;17.42;;
45007;SDS011;30743;52.008;5.644;2022-09-24T00:26:21;19.33;;;15.88;;
45007;SDS011;30743;52.008;5.644;2022-09-24T00:29:06;20.88;;;15.82;;
45007;SDS011;30743;52.008;5.644;2022-09-24T00:31:33;18.60;;;15.93;;
45007;SDS011;30743;52.008;5.644;2022-09-24T00:33:59;20.80;;;16.45;;
45007;SDS011;30743;52.008;5.644;2022-09-24T00:36:25;19.35;;;16.58;;
45007;SDS011;30743;52.008;5.644;2022-09-24T00:38:52;20.23;;;16.98;;
45007;SDS011;30743;52.008;5.644;2022-09-24T00:41:20;21.48;;;16.90;;
45007;SDS011;30743;52.008;5.644;2022-09-24T00:43:48;20.40;;;16.55;;
45007;SDS011;30743;52.008;5.644;2022-09-24T00:48:49;21.33;;;16.17;;
45007;SDS011;30743;52.008;5.644;2022-09-24T00:51:19;19.67;;;16.08;;
45007;SDS011;30743;52.008;5.644;2022-09-24T00:53:48;24.25;;;17.08;;
45007;SDS011;30743;52.008;5.644;2022-09-24T00:58:44;22.15;;;16.90;;
45007;SDS011;30743;52.008;5.644;2022-09-24T01:01:14;22.25;;;17.08;;
45007;SDS011;30743;52.008;5.644;2022-09-24T01:03:40;22.13;;;16.92;;
45007;SDS011;30743;52.008;5.644;2022-09-24T01:06:09;23.50;;;17.88;;
45007;SDS011;30743;52.008;5.644;2022-09-24T01:08:35;25.13;;;18.45;;
45007;SDS011;30743;52.008;5.644;2022-09-24T01:11:14;23.05;;;17.58;;
45007;SDS011;30743;52.008;5.644;2022-09-24T01:13:56;25.90;;;18.30;;
45007;SDS011;30743;52.008;5.644;2022-09-24T01:16:57;22.85;;;17.73;;
45007;SDS011;30743;52.008;5.644;2022-09-24T01:19:42;24.40;;;18.52;;
45007;SDS011;30743;52.008;5.644;2022-09-24T01:22:25;26.08;;;19.23;;
45007;SDS011;30743;52.008;5.644;2022-09-24T01:30:31;27.58;;;19.67;;
45007;SDS011;30743;52.008;5.644;2022-09-24T01:33:02;26.80;;;20.65;;
45007;SDS011;30743;52.008;5.644;2022-09-24T01:35:35;26.65;;;20.25;;
45007;SDS011;30743;52.008;5.644;2022-09-24T01:38:13;26.05;;;19.67;;
45007;SDS011;30743;52.008;5.644;2022-09-24T01:40:41;26.45;;;20.35;;
45007;SDS011;30743;52.008;5.644;2022-09-24T01:43:09;27.10;;;20.40;;
45007;SDS011;30743;52.008;5.644;2022-09-24T01:45:37;28.23;;;20.10;;
45007;SDS011;30743;52.008;5.644;2022-09-24T01:48:04;28.30;;;20.85;;
45007;SDS011;30743;52.008;5.644;2022-09-24T01:50:36;27.13;;;18.98;;
45007;SDS011;30743;52.008;5.644;2022-09-24T01:53:18;25.73;;;19.63;;
45007;SDS011;30743;52.008;5.644;2022-09-24T01:55:53;25.65;;;19.92;;
45007;SDS011;30743;52.008;5.644;2022-09-24T01:58:29;27.27;;;19.33;;
45007;SDS011;30743;52.008;5.644;2022-09-24T02:01:02;26.27;;;19.30;;
45007;SDS011;30743;52.008;5.644;2022-09-24T02:03:33;25.05;;;19.25;;
45007;SDS011;30743;52.008;5.644;2022-09-24T02:06:12;23.42;;;18.27;;
45007;SDS011;30743;52.008;5.644;2022-09-24T02:08:45;26.00;;;19.58;;
45007;SDS011;30743;52.008;5.644;2022-09-24T02:11:13;27.35;;;19.50;;
45007;SDS011;30743;52.008;5.644;2022-09-24T02:13:52;27.40;;;19.23;;
45007;SDS011;30743;52.008;5.644;2022-09-24T02:16:26;29.50;;;20.50;;
45007;SDS011;30743;52.008;5.644;2022-09-24T02:18:59;26.00;;;19.92;;
45007;SDS011;30743;52.008;5.644;2022-09-24T02:21:27;29.33;;;20.75;;
45007;SDS011;30743;52.008;5.644;2022-09-24T02:23:57;25.33;;;19.70;;
45007;SDS011;30743;52.008;5.644;2022-09-24T02:26:50;29.85;;;21.42;;
45007;SDS011;30743;52.008;5.644;2022-09-24T02:29:16;25.83;;;19.15;;
45007;SDS011;30743;52.008;5.644;2022-09-24T02:31:44;25.88;;;19.83;;
45007;SDS011;30743;52.008;5.644;2022-09-24T02:34:14;23.95;;;18.95;;
45007;SDS011;30743;52.008;5.644;2022-09-24T02:39:13;24.00;;;18.35;;
45007;SDS011;30743;52.008;5.644;2022-09-24T02:41:39;24.70;;;18.52;;
45007;SDS011;30743;52.008;5.644;2022-09-24T02:44:06;24.73;;;17.88;;
45007;SDS011;30743;52.008;5.644;2022-09-24T02:46:32;25.35;;;17.63;;
45007;SDS011;30743;52.008;5.644;2022-09-24T02:48:57;22.77;;;16.77;;
45007;SDS011;30743;52.008;5.644;2022-09-24T02:51:23;21.38;;;17.17;;
45007;SDS011;30743;52.008;5.644;2022-09-24T02:53:49;23.63;;;18.02;;
45007;SDS011;30743;52.008;5.644;2022-09-24T02:56:14;22.35;;;17.05;;
45007;SDS011;30743;52.008;5.644;2022-09-24T02:58:40;19.92;;;14.95;;
45007;SDS011;30743;52.008;5.644;2022-09-24T03:01:07;20.67;;;16.73;;
45007;SDS011;30743;52.008;5.644;2022-09-24T03:03:32;21.70;;;16.33;;
45007;SDS011;30743;52.008;5.644;2022-09-24T03:05:58;21.10;;;17.08;;
45007;SDS011;30743;52.008;5.644;2022-09-24T03:08:23;21.80;;;15.93;;
45007;SDS011;30743;52.008;5.644;2022-09-24T03:10:49;21.70;;;15.98;;
45007;SDS011;30743;52.008;5.644;2022-09-24T03:13:16;22.30;;;16.15;;
45007;SDS011;30743;52.008;5.644;2022-09-24T03:15:42;21.20;;;15.73;;
45007;SDS011;30743;52.008;5.644;2022-09-24T03:20:37;22.40;;;15.38;;
45007;SDS011;30743;52.008;5.644;2022-09-24T03:23:03;20.15;;;15.07;;
45007;SDS011;30743;52.008;5.644;2022-09-24T03:25:29;22.98;;;15.20;;
45007;SDS011;30743;52.008;5.644;2022-09-24T03:27:55;21.77;;;14.60;;
45007;SDS011;30743;52.008;5.644;2022-09-24T03:30:20;20.95;;;15.23;;
45007;SDS011;30743;52.008;5.644;2022-09-24T03:33:05;18.85;;;14.73;;
45007;SDS011;30743;52.008;5.644;2022-09-24T03:35:30;19.65;;;14.57;;
45007;SDS011;30743;52.008;5.644;2022-09-24T03:37:56;19.13;;;14.15;;
45007;SDS011;30743;52.008;5.644;2022-09-24T03:40:21;18.73;;;14.30;;
45007;SDS011;30743;52.008;5.644;2022-09-24T03:42:48;18.55;;;13.07;;
45007;SDS011;30743;52.008;5.644;2022-09-24T03:45:13;17.67;;;13.50;;
45007;SDS011;30743;52.008;5.644;2022-09-24T03:47:39;17.27;;;12.68;;
45007;SDS011;30743;52.008;5.644;2022-09-24T03:50:05;17.58;;;12.88;;
45007;SDS011;30743;52.008;5.644;2022-09-24T03:52:33;18.08;;;12.75;;
45007;SDS011;30743;52.008;5.644;2022-09-24T03:54:59;15.55;;;12.30;;
45007;SDS011;30743;52.008;5.644;2022-09-24T03:57:24;16.77;;;12.27;;
45007;SDS011;30743;52.008;5.644;2022-09-24T03:59:50;15.13;;;11.88;;
45007;SDS011;30743;52.008;5.644;2022-09-24T04:02:18;17.17;;;12.13;;
45007;SDS011;30743;52.008;5.644;2022-09-24T04:04:43;15.77;;;11.95;;
45007;SDS011;30743;52.008;5.644;2022-09-24T04:07:09;14.23;;;11.75;;
45007;SDS011;30743;52.008;5.644;2022-09-24T04:09:34;14.73;;;11.43;;
45007;SDS011;30743;52.008;5.644;2022-09-24T04:12:00;15.98;;;10.77;;
45007;SDS011;30743;52.008;5.644;2022-09-24T04:14:26;15.85;;;11.68;;
45007;SDS011;30743;52.008;5.644;2022-09-24T04:16:51;18.60;;;11.48;;
45007;SDS011;30743;52.008;5.644;2022-09-24T04:19:17;14.65;;;10.98;;
45007;SDS011;30743;52.008;5.644;2022-09-24T04:21:46;15.73;;;11.45;;
45007;SDS011;30743;52.008;5.644;2022-09-24T04:24:11;15.07;;;11.67;;
45007;SDS011;30743;52.008;5.644;2022-09-24T04:26:37;14.70;;;12.02;;
45007;SDS011;30743;52.008;5.644;2022-09-24T04:29:03;14.65;;;11.65;;
45007;SDS011;30743;52.008;5.644;2022-09-24T04:31:29;15.27;;;11.93;;
45007;SDS011;30743;52.008;5.644;2022-09-24T04:33:56;15.77;;;11.82;;
45007;SDS011;30743;52.008;5.644;2022-09-24T04:36:22;15.25;;;11.25;;
45007;SDS011;30743;52.008;5.644;2022-09-24T04:38:47;13.32;;;10.18;;
45007;SDS011;30743;52.008;5.644;2022-09-24T04:41:13;14.95;;;10.82;;
45007;SDS011;30743;52.008;5.644;2022-09-24T04:43:40;13.90;;;10.70;;
45007;SDS011;30743;52.008;5.644;2022-09-24T04:46:07;13.95;;;10.75;;
45007;SDS011;30743;52.008;5.644;2022-09-24T04:48:36;13.88;;;10.98;;
45007;SDS011;30743;52.008;5.644;2022-09-24T04:51:05;15.30;;;11.52;;
45007;SDS011;30743;52.008;5.644;2022-09-24T04:53:33;16.13;;;11.10;;
45007;SDS011;30743;52.008;5.644;2022-09-24T04:56:00;15.63;;;11.13;;
45007;SDS011;30743;52.008;5.644;2022-09-24T04:58:26;14.65;;;11.15;;
45007;SDS011;30743;52.008;5.644;2022-09-24T05:00:52;15.18;;;12.07;;
45007;SDS011;30743;52.008;5.644;2022-09-24T05:03:18;14.63;;;11.02;;
45007;SDS011;30743;52.008;5.644;2022-09-24T05:05:46;13.98;;;11.60;;
45007;SDS011;30743;52.008;5.644;2022-09-24T05:08:12;13.43;;;10.82;;
45007;SDS011;30743;52.008;5.644;2022-09-24T05:10:38;16.83;;;11.10;;
45007;SDS011;30743;52.008;5.644;2022-09-24T05:13:04;14.65;;;11.40;;
45007;SDS011;30743;52.008;5.644;2022-09-24T05:15:29;14.40;;;10.93;;
45007;SDS011;30743;52.008;5.644;2022-09-24T05:17:55;15.68;;;11.30;;
45007;SDS011;30743;52.008;5.644;2022-09-24T05:20:21;15.70;;;11.45;;
45007;SDS011;30743;52.008;5.644;2022-09-24T05:22:47;14.32;;;11.10;;
45007;SDS011;30743;52.008;5.644;2022-09-24T05:25:14;14.65;;;11.65;;
45007;SDS011;30743;52.008;5.644;2022-09-24T05:27:47;14.88;;;11.68;;
45007;SDS011;30743;52.008;5.644;2022-09-24T05:30:18;14.32;;;10.90;;
45007;SDS011;30743;52.008;5.644;2022-09-24T05:32:45;13.68;;;10.02;;
45007;SDS011;30743;52.008;5.644;2022-09-24T05:35:15;13.75;;;11.38;;
45007;SDS011;30743;52.008;5.644;2022-09-24T05:37:41;17.52;;;11.27;;
45007;SDS011;30743;52.008;5.644;2022-09-24T05:40:08;12.02;;;9.77;;
45007;SDS011;30743;52.008;5.644;2022-09-24T05:42:57;12.95;;;10.52;;
45007;SDS011;30743;52.008;5.644;2022-09-24T05:45:27;13.40;;;10.60;;
45007;SDS011;30743;52.008;5.644;2022-09-24T05:47:53;14.55;;;10.88;;
45007;SDS011;30743;52.008;5.644;2022-09-24T05:50:18;12.57;;;10.20;;
45007;SDS011;30743;52.008;5.644;2022-09-24T05:52:45;12.77;;;10.20;;
45007;SDS011;30743;52.008;5.644;2022-09-24T05:55:10;16.13;;;10.93;;
45007;SDS011;30743;52.008;5.644;2022-09-24T05:57:36;14.93;;;11.00;;
45007;SDS011;30743;52.008;5.644;2022-09-24T06:00:02;12.98;;;10.35;;
45007;SDS011;30743;52.008;5.644;2022-09-24T06:02:29;12.63;;;10.65;;
45007;SDS011;30743;52.008;5.644;2022-09-24T06:04:55;13.75;;;10.27;;
45007;SDS011;30743;52.008;5.644;2022-09-24T06:07:21;12.60;;;11.13;;
45007;SDS011;30743;52.008;5.644;2022-09-24T06:09:46;13.65;;;10.90;;
45007;SDS011;30743;52.008;5.644;2022-09-24T06:12:12;13.90;;;10.95;;
45007;SDS011;30743;52.008;5.644;2022-09-24T06:14:38;13.05;;;10.57;;
45007;SDS011;30743;52.008;5.644;2022-09-24T06:17:06;14.18;;;11.45;;
45007;SDS011;30743;52.008;5.644;2022-09-24T06:19:32;16.25;;;11.45;;
45007;SDS011;30743;52.008;5.644;2022-09-24T06:21:58;15.05;;;11.52;;
45007;SDS011;30743;52.008;5.644;2022-09-24T06:24:23;14.85;;;11.88;;
45007;SDS011;30743;52.008;5.644;2022-09-24T06:26:49;13.30;;;11.27;;
45007;SDS011;30743;52.008;5.644;2022-09-24T06:29:14;13.70;;;11.52;;
45007;SDS011;30743;52.008;5.644;2022-09-24T06:31:40;15.65;;;11.77;;
45007;SDS011;30743;52.008;5.644;2022-09-24T06:34:05;13.30;;;11.52;;
45007;SDS011;30743;52.008;5.644;2022-09-24T06:36:31;15.13;;;12.15;;
45007;SDS011;30743;52.008;5.644;2022-09-24T06:38:56;13.00;;;11.15;;
45007;SDS011;30743;52.008;5.644;2022-09-24T06:41:23;13.70;;;11.10;;
45007;SDS011;30743;52.008;5.644;2022-09-24T06:43:48;14.25;;;11.50;;
45007;SDS011;30743;52.008;5.644;2022-09-24T06:46:17;15.40;;;12.52;;
45007;SDS011;30743;52.008;5.644;2022-09-24T06:48:42;16.20;;;11.40;;
45007;SDS011;30743;52.008;5.644;2022-09-24T06:51:08;14.23;;;11.25;;
45007;SDS011;30743;52.008;5.644;2022-09-24T06:53:34;15.77;;;12.55;;
45007;SDS011;30743;52.008;5.644;2022-09-24T06:56:00;13.43;;;11.55;;
45007;SDS011;30743;52.008;5.644;2022-09-24T06:58:27;14.43;;;12.05;;
45007;SDS011;30743;52.008;5.644;2022-09-24T07:00:54;14.68;;;12.57;;
45007;SDS011;30743;52.008;5.644;2022-09-24T07:03:26;14.88;;;11.95;;
45007;SDS011;30743;52.008;5.644;2022-09-24T07:05:53;12.88;;;11.20;;
45007;SDS011;30743;52.008;5.644;2022-09-24T07:08:18;12.90;;;10.70;;
45007;SDS011;30743;52.008;5.644;2022-09-24T07:10:44;14.13;;;11.00;;
45007;SDS011;30743;52.008;5.644;2022-09-24T07:13:13;12.23;;;10.40;;
45007;SDS011;30743;52.008;5.644;2022-09-24T07:15:39;11.75;;;10.25;;
45007;SDS011;30743;52.008;5.644;2022-09-24T07:18:06;11.98;;;10.00;;
45007;SDS011;30743;52.008;5.644;2022-09-24T07:20:32;12.93;;;10.52;;
45007;SDS011;30743;52.008;5.644;2022-09-24T07:23:00;12.93;;;10.38;;
45007;SDS011;30743;52.008;5.644;2022-09-24T07:25:26;11.80;;;10.48;;
45007;SDS011;30743;52.008;5.644;2022-09-24T07:27:52;12.40;;;10.20;;
45007;SDS011;30743;52.008;5.644;2022-09-24T07:30:17;11.50;;;9.88;;
45007;SDS011;30743;52.008;5.644;2022-09-24T07:32:43;11.75;;;10.20;;
45007;SDS011;30743;52.008;5.644;2022-09-24T07:35:08;14.48;;;10.27;;
45007;SDS011;30743;52.008;5.644;2022-09-24T07:37:34;15.70;;;10.60;;
45007;SDS011;30743;52.008;5.644;2022-09-24T07:39:59;13.98;;;11.50;;
45007;SDS011;30743;52.008;5.644;2022-09-24T07:42:25;14.52;;;11.15;;
45007;SDS011;30743;52.008;5.644;2022-09-24T07:44:53;18.02;;;10.52;;
45007;SDS011;30743;52.008;5.644;2022-09-24T07:47:20;15.63;;;11.02;;
45007;SDS011;30743;52.008;5.644;2022-09-24T07:49:46;13.65;;;10.80;;
45007;SDS011;30743;52.008;5.644;2022-09-24T07:52:12;15.25;;;11.13;;
45007;SDS011;30743;52.008;5.644;2022-09-24T07:54:37;12.20;;;10.88;;
45007;SDS011;30743;52.008;5.644;2022-09-24T07:57:08;15.15;;;11.15;;
45007;SDS011;30743;52.008;5.644;2022-09-24T07:59:36;13.43;;;10.60;;
45007;SDS011;30743;52.008;5.644;2022-09-24T08:02:01;15.57;;;11.52;;
45007;SDS011;30743;52.008;5.644;2022-09-24T08:04:27;13.43;;;11.77;;
45007;SDS011;30743;52.008;5.644;2022-09-24T08:06:52;13.43;;;11.63;;
45007;SDS011;30743;52.008;5.644;2022-09-24T08:09:18;16.65;;;11.98;;
45007;SDS011;30743;52.008;5.644;2022-09-24T08:11:44;16.95;;;12.43;;
45007;SDS011;30743;52.008;5.644;2022-09-24T08:14:09;14.65;;;12.05;;
45007;SDS011;30743;52.008;5.644;2022-09-24T08:16:35;13.73;;;11.38;;
45007;SDS011;30743;52.008;5.644;2022-09-24T08:19:01;15.20;;;11.30;;
45007;SDS011;30743;52.008;5.644;2022-09-24T08:21:27;14.55;;;11.80;;
45007;SDS011;30743;52.008;5.644;2022-09-24T08:23:53;14.50;;;11.65;;
45007;SDS011;30743;52.008;5.644;2022-09-24T08:26:18;17.08;;;11.90;;
45007;SDS011;30743;52.008;5.644;2022-09-24T08:28:44;15.07;;;11.50;;
45007;SDS011;30743;52.008;5.644;2022-09-24T08:31:13;16.17;;;12.35;;
45007;SDS011;30743;52.008;5.644;2022-09-24T08:33:38;14.25;;;11.70;;
45007;SDS011;30743;52.008;5.644;2022-09-24T08:36:06;14.75;;;11.55;;
45007;SDS011;30743;52.008;5.644;2022-09-24T08:38:33;16.02;;;10.88;;
45007;SDS011;30743;52.008;5.644;2022-09-24T08:46:28;18.63;;;11.20;;
45007;SDS011;30743;52.008;5.644;2022-09-24T08:49:34;16.92;;;11.45;;
45007;SDS011;30743;52.008;5.644;2022-09-24T08:55:06;19.05;;;11.95;;
45007;SDS011;30743;52.008;5.644;2022-09-24T08:57:50;15.65;;;11.82;;
45007;SDS011;30743;52.008;5.644;2022-09-24T09:00:22;14.20;;;11.80;;
45007;SDS011;30743;52.008;5.644;2022-09-24T09:02:54;17.48;;;12.95;;
45007;SDS011;30743;52.008;5.644;2022-09-24T09:05:44;17.33;;;13.10;;
45007;SDS011;30743;52.008;5.644;2022-09-24T09:08:36;15.63;;;12.65;;
45007;SDS011;30743;52.008;5.644;2022-09-24T09:11:15;17.33;;;12.90;;
45007;SDS011;30743;52.008;5.644;2022-09-24T09:13:48;16.73;;;13.10;;
45007;SDS011;30743;52.008;5.644;2022-09-24T09:16:22;19.55;;;13.63;;
45007;SDS011;30743;52.008;5.644;2022-09-24T09:18:52;15.48;;;13.15;;
45007;SDS011;30743;52.008;5.644;2022-09-24T09:21:30;14.73;;;12.90;;
45007;SDS011;30743;52.008;5.644;2022-09-24T09:24:03;15.23;;;13.10;;
45007;SDS011;30743;52.008;5.644;2022-09-24T09:26:30;13.13;;;11.73;;
45007;SDS011;30743;52.008;5.644;2022-09-24T09:28:59;14.93;;;12.80;;
45007;SDS011;30743;52.008;5.644;2022-09-24T09:31:28;15.50;;;13.48;;
45007;SDS011;30743;52.008;5.644;2022-09-24T09:37:13;16.17;;;13.35;;
45007;SDS011;30743;52.008;5.644;2022-09-24T09:42:34;14.25;;;11.50;;
45007;SDS011;30743;52.008;5.644;2022-09-24T09:48:01;15.88;;;12.32;;
45007;SDS011;30743;52.008;5.644;2022-09-24T09:50:33;20.67;;;14.07;;
45007;SDS011;30743;52.008;5.644;2022-09-24T09:53:18;15.38;;;12.77;;
45007;SDS011;30743;52.008;5.644;2022-09-24T09:55:53;14.05;;;12.15;;
45007;SDS011;30743;52.008;5.644;2022-09-24T09:58:21;13.98;;;12.52;;
45007;SDS011;30743;52.008;5.644;2022-09-24T10:00:49;13.65;;;11.40;;
45007;SDS011;30743;52.008;5.644;2022-09-24T10:06:01;14.05;;;11.90;;
45007;SDS011;30743;52.008;5.644;2022-09-24T10:08:29;13.57;;;12.13;;
45007;SDS011;30743;52.008;5.644;2022-09-24T10:10:56;13.80;;;12.18;;
45007;SDS011;30743;52.008;5.644;2022-09-24T10:13:23;12.55;;;11.27;;
45007;SDS011;30743;52.008;5.644;2022-09-24T10:15:51;12.68;;;11.38;;
45007;SDS011;30743;52.008;5.644;2022-09-24T10:18:35;13.18;;;11.77;;
45007;SDS011;30743;52.008;5.644;2022-09-24T10:21:07;12.65;;;11.23;;
45007;SDS011;30743;52.008;5.644;2022-09-24T10:23:40;12.25;;;10.90;;
45007;SDS011;30743;52.008;5.644;2022-09-24T10:26:07;13.07;;;10.13;;
45007;SDS011;30743;52.008;5.644;2022-09-24T10:28:36;10.82;;;9.73;;
45007;SDS011;30743;52.008;5.644;2022-09-24T10:31:28;11.13;;;9.52;;
45007;SDS011;30743;52.008;5.644;2022-09-24T10:33:55;11.02;;;9.32;;
45007;SDS011;30743;52.008;5.644;2022-09-24T10:36:24;11.57;;;10.02;;
45007;SDS011;30743;52.008;5.644;2022-09-24T10:41:32;9.57;;;8.57;;
45007;SDS011;30743;52.008;5.644;2022-09-24T10:44:00;10.48;;;9.27;;
45007;SDS011;30743;52.008;5.644;2022-09-24T11:00:15;8.25;;;7.32;;
45007;SDS011;30743;52.008;5.644;2022-09-24T11:05:34;7.72;;;6.93;;
45007;SDS011;30743;52.008;5.644;2022-09-24T11:11:04;7.25;;;6.55;;
45007;SDS011;30743;52.008;5.644;2022-09-24T11:16:58;8.10;;;6.25;;
45007;SDS011;30743;52.008;5.644;2022-09-24T11:19:46;7.53;;;6.63;;
45007;SDS011;30743;52.008;5.644;2022-09-24T11:22:14;6.35;;;5.70;;
45007;SDS011;30743;52.008;5.644;2022-09-24T11:30:13;6.47;;;5.72;;
45007;SDS011;30743;52.008;5.644;2022-09-24T11:32:52;6.10;;;5.45;;
45007;SDS011;30743;52.008;5.644;2022-09-24T11:54:59;5.70;;;5.10;;
45007;SDS011;30743;52.008;5.644;2022-09-24T11:58:03;6.15;;;5.38;;
45007;SDS011;30743;52.008;5.644;2022-09-24T12:00:39;7.05;;;5.95;;
45007;SDS011;30743;52.008;5.644;2022-09-24T12:03:23;7.95;;;6.80;;
45007;SDS011;30743;52.008;5.644;2022-09-24T12:06:10;6.50;;;5.80;;
45007;SDS011;30743;52.008;5.644;2022-09-24T12:11:29;6.82;;;5.82;;
45007;SDS011;30743;52.008;5.644;2022-09-24T12:14:10;6.50;;;5.78;;
45007;SDS011;30743;52.008;5.644;2022-09-24T12:16:41;6.05;;;5.45;;
45007;SDS011;30743;52.008;5.644;2022-09-24T12:19:32;6.30;;;5.45;;
45007;SDS011;30743;52.008;5.644;2022-09-24T12:22:03;5.38;;;4.72;;
45007;SDS011;30743;52.008;5.644;2022-09-24T12:24:37;4.88;;;4.38;;
45007;SDS011;30743;52.008;5.644;2022-09-24T12:27:10;5.18;;;4.68;;
45007;SDS011;30743;52.008;5.644;2022-09-24T12:29:46;5.70;;;5.10;;
45007;SDS011;30743;52.008;5.644;2022-09-24T12:38:22;6.55;;;4.57;;
45007;SDS011;30743;52.008;5.644;2022-09-24T12:44:02;4.60;;;3.80;;
45007;SDS011;30743;52.008;5.644;2022-09-24T12:51:42;4.55;;;4.03;;
45007;SDS011;30743;52.008;5.644;2022-09-24T12:54:19;4.55;;;4.15;;
45007;SDS011;30743;52.008;5.644;2022-09-24T12:56:51;4.20;;;3.50;;
45007;SDS011;30743;52.008;5.644;2022-09-24T12:59:27;3.53;;;3.05;;
45007;SDS011;30743;52.008;5.644;2022-09-24T13:01:52;4.15;;;3.75;;
45007;SDS011;30743;52.008;5.644;2022-09-24T13:06:44;7.43;;;5.35;;
45007;SDS011;30743;52.008;5.644;2022-09-24T13:14:42;6.22;;;5.43;;
45007;SDS011;30743;52.008;5.644;2022-09-24T13:17:26;6.35;;;5.70;;
45007;SDS011;30743;52.008;5.644;2022-09-24T13:19:57;7.70;;;6.25;;
45007;SDS011;30743;52.008;5.644;2022-09-24T13:24:51;7.40;;;5.15;;
45007;SDS011;30743;52.008;5.644;2022-09-24T13:27:19;7.53;;;5.60;;
45007;SDS011;30743;52.008;5.644;2022-09-24T13:29:51;7.95;;;5.90;;
45007;SDS011;30743;52.008;5.644;2022-09-24T13:32:26;7.82;;;6.28;;
45007;SDS011;30743;52.008;5.644;2022-09-24T13:34:58;6.95;;;5.38;;
45007;SDS011;30743;52.008;5.644;2022-09-24T13:37:37;6.68;;;5.25;;
45007;SDS011;30743;52.008;5.644;2022-09-24T13:40:05;5.55;;;4.85;;
45007;SDS011;30743;52.008;5.644;2022-09-24T13:42:48;7.10;;;4.93;;
45007;SDS011;30743;52.008;5.644;2022-09-24T13:45:22;5.78;;;3.75;;
45007;SDS011;30743;52.008;5.644;2022-09-24T13:47:53;4.70;;;3.00;;
45007;SDS011;30743;52.008;5.644;2022-09-24T13:50:43;4.43;;;2.90;;
45007;SDS011;30743;52.008;5.644;2022-09-24T13:53:22;3.85;;;2.35;;
45007;SDS011;30743;52.008;5.644;2022-09-24T13:55:56;5.20;;;2.47;;
45007;SDS011;30743;52.008;5.644;2022-09-24T13:58:31;7.68;;;2.03;;
45007;SDS011;30743;52.008;5.644;2022-09-24T14:00:59;3.50;;;1.90;;
45007;SDS011;30743;52.008;5.644;2022-09-24T14:03:31;5.18;;;1.67;;
45007;SDS011;30743;52.008;5.644;2022-09-24T14:06:08;1.67;;;0.75;;
45007;SDS011;30743;52.008;5.644;2022-09-24T14:08:42;5.00;;;1.27;;
45007;SDS011;30743;52.008;5.644;2022-09-24T14:11:14;6.25;;;3.00;;
45007;SDS011;30743;52.008;5.644;2022-09-24T14:13:45;11.13;;;4.95;;
45007;SDS011;30743;52.008;5.644;2022-09-24T14:18:41;4.22;;;2.60;;
45007;SDS011;30743;52.008;5.644;2022-09-24T14:21:09;5.65;;;2.08;;
45007;SDS011;30743;52.008;5.644;2022-09-24T14:23:50;6.57;;;3.20;;
45007;SDS011;30743;52.008;5.644;2022-09-24T14:28:55;8.80;;;3.28;;
45007;SDS011;30743;52.008;5.644;2022-09-24T14:31:24;5.28;;;2.40;;
45007;SDS011;30743;52.008;5.644;2022-09-24T14:33:49;10.05;;;7.28;;
45007;SDS011;30743;52.008;5.644;2022-09-24T14:36:15;8.70;;;5.47;;
45007;SDS011;30743;52.008;5.644;2022-09-24T14:38:49;5.35;;;3.42;;
45007;SDS011;30743;52.008;5.644;2022-09-24T14:41:28;4.65;;;3.42;;
45007;SDS011;30743;52.008;5.644;2022-09-24T14:43:58;7.10;;;3.88;;
45007;SDS011;30743;52.008;5.644;2022-09-24T14:46:36;10.23;;;4.60;;
45007;SDS011;30743;52.008;5.644;2022-09-24T14:49:19;12.63;;;8.85;;
45007;SDS011;30743;52.008;5.644;2022-09-24T14:51:53;9.90;;;4.88;;
45007;SDS011;30743;52.008;5.644;2022-09-24T14:54:33;8.18;;;4.78;;
45007;SDS011;30743;52.008;5.644;2022-09-24T14:57:11;7.68;;;3.58;;
45007;SDS011;30743;52.008;5.644;2022-09-24T14:59:48;6.70;;;3.55;;
45007;SDS011;30743;52.008;5.644;2022-09-24T15:02:19;9.95;;;6.28;;
45007;SDS011;30743;52.008;5.644;2022-09-24T15:04:58;7.18;;;3.42;;
45007;SDS011;30743;52.008;5.644;2022-09-24T15:07:26;8.20;;;4.87;;
45007;SDS011;30743;52.008;5.644;2022-09-24T15:09:57;7.13;;;4.25;;
45007;SDS011;30743;52.008;5.644;2022-09-24T15:12:31;8.63;;;6.35;;
45007;SDS011;30743;52.008;5.644;2022-09-24T15:15:01;5.95;;;5.28;;
45007;SDS011;30743;52.008;5.644;2022-09-24T15:17:29;11.80;;;6.43;;
45007;SDS011;30743;52.008;5.644;2022-09-24T15:19:56;5.47;;;3.40;;
45007;SDS011;30743;52.008;5.644;2022-09-24T15:22:23;6.57;;;2.15;;
45007;SDS011;30743;52.008;5.644;2022-09-24T15:24:51;3.20;;;1.65;;
45007;SDS011;30743;52.008;5.644;2022-09-24T15:27:21;6.00;;;2.65;;
45007;SDS011;30743;52.008;5.644;2022-09-24T15:29:50;9.02;;;3.67;;
45007;SDS011;30743;52.008;5.644;2022-09-24T15:32:18;5.63;;;3.38;;
45007;SDS011;30743;52.008;5.644;2022-09-24T15:34:45;3.22;;;2.05;;
45007;SDS011;30743;52.008;5.644;2022-09-24T15:37:11;11.38;;;2.67;;
45007;SDS011;30743;52.008;5.644;2022-09-24T15:39:40;7.13;;;2.13;;
45007;SDS011;30743;52.008;5.644;2022-09-24T15:42:12;6.88;;;1.90;;
45007;SDS011;30743;52.008;5.644;2022-09-24T15:44:43;7.30;;;3.33;;
45007;SDS011;30743;52.008;5.644;2022-09-24T15:47:09;8.50;;;1.90;;
45007;SDS011;30743;52.008;5.644;2022-09-24T15:49:35;7.75;;;1.77;;
45007;SDS011;30743;52.008;5.644;2022-09-24T15:52:04;4.70;;;2.00;;
45007;SDS011;30743;52.008;5.644;2022-09-24T15:54:31;6.63;;;2.03;;
45007;SDS011;30743;52.008;5.644;2022-09-24T15:56:57;6.65;;;1.85;;
45007;SDS011;30743;52.008;5.644;2022-09-24T15:59:23;4.75;;;1.55;;
45007;SDS011;30743;52.008;5.644;2022-09-24T16:01:50;8.23;;;2.38;;
45007;SDS011;30743;52.008;5.644;2022-09-24T16:04:18;4.22;;;1.15;;
45007;SDS011;30743;52.008;5.644;2022-09-24T16:06:43;3.63;;;1.50;;
45007;SDS011;30743;52.008;5.644;2022-09-24T16:09:09;4.35;;;1.40;;
45007;SDS011;30743;52.008;5.644;2022-09-24T16:11:34;6.70;;;1.38;;
45007;SDS011;30743;52.008;5.644;2022-09-24T16:14:00;10.50;;;1.80;;
45007;SDS011;30743;52.008;5.644;2022-09-24T16:16:25;6.97;;;1.73;;
45007;SDS011;30743;52.008;5.644;2022-09-24T16:18:51;4.60;;;1.98;;
45007;SDS011;30743;52.008;5.644;2022-09-24T16:21:17;5.50;;;1.70;;
45007;SDS011;30743;52.008;5.644;2022-09-24T16:23:43;6.35;;;1.98;;
45007;SDS011;30743;52.008;5.644;2022-09-24T16:26:08;4.13;;;1.30;;
45007;SDS011;30743;52.008;5.644;2022-09-24T16:28:34;5.05;;;1.60;;
45007;SDS011;30743;52.008;5.644;2022-09-24T16:31:03;6.90;;;1.50;;
45007;SDS011;30743;52.008;5.644;2022-09-24T16:33:38;6.75;;;1.63;;
45007;SDS011;30743;52.008;5.644;2022-09-24T16:36:04;6.45;;;1.98;;
45007;SDS011;30743;52.008;5.644;2022-09-24T16:38:35;6.50;;;1.52;;
45007;SDS011;30743;52.008;5.644;2022-09-24T16:41:01;4.88;;;1.52;;
45007;SDS011;30743;52.008;5.644;2022-09-24T16:43:28;4.30;;;1.80;;
45007;SDS011;30743;52.008;5.644;2022-09-24T16:45:58;4.68;;;1.85;;